Weather at Tyabb Airport

Public forecast

Using degrees Celsius for public forecast. Weather courtesy of forecast.io.

Closest aviation weather report (METAR) to Tyabb Airport

Report is more than 6 hours old.

Closest report is Melbourne Essendon Airport, 34.9 nm (64.6 km) NNW. Retrieved 2022/08/09 22:29 UTC (8 hours ago):

YMEN 092229Z AUTO 07004KT 9000 // NCD 04/04 Q1026

Closest aviation forecast (TAF) to Tyabb Airport

Closest forecast is Avalon Airport, 36.2 nm (67.1 km) WNW. Retrieved 2022/08/10 06:36 UTC (0 seconds ago):

TAF YMAV 100528Z 1006/1106 01013KT 9999 FEW045 FM100900 02010KT CAVOK FM102300 02015G25KT 9999 -RA SCT045